sensor_id;sensor_type;location;lat;lon;timestamp;temperature;humidity
49218;DHT22;35045;51.194;7.268;2022-10-13T00:00:43;10.30;99.90
49218;DHT22;35045;51.194;7.268;2022-10-13T00:03:10;10.30;99.90
49218;DHT22;35045;51.194;7.268;2022-10-13T00:05:41;10.40;99.90
49218;DHT22;35045;51.194;7.268;2022-10-13T00:08:08;10.40;99.90
49218;DHT22;35045;51.194;7.268;2022-10-13T00:10:38;10.40;99.90
49218;DHT22;35045;51.194;7.268;2022-10-13T00:13:06;10.40;99.90
49218;DHT22;35045;51.194;7.268;2022-10-13T00:15:32;10.40;99.90
49218;DHT22;35045;51.194;7.268;2022-10-13T00:18:02;10.50;99.90
49218;DHT22;35045;51.194;7.268;2022-10-13T00:20:28;10.50;99.90
49218;DHT22;35045;51.194;7.268;2022-10-13T00:22:54;10.50;99.90
49218;DHT22;35045;51.194;7.268;2022-10-13T00:25:20;10.60;99.90
49218;DHT22;35045;51.194;7.268;2022-10-13T00:27:46;10.60;99.90
49218;DHT22;35045;51.194;7.268;2022-10-13T00:30:12;10.60;99.90
49218;DHT22;35045;51.194;7.268;2022-10-13T00:32:39;10.60;99.90
49218;DHT22;35045;51.194;7.268;2022-10-13T00:35:05;10.70;99.90
49218;DHT22;35045;51.194;7.268;2022-10-13T00:37:31;10.70;99.90
49218;DHT22;35045;51.194;7.268;2022-10-13T00:39:57;10.70;99.90
49218;DHT22;35045;51.194;7.268;2022-10-13T00:42:24;10.60;99.90
49218;DHT22;35045;51.194;7.268;2022-10-13T00:45:06;10.60;99.90
49218;DHT22;35045;51.194;7.268;2022-10-13T00:47:39;10.60;99.90
49218;DHT22;35045;51.194;7.268;2022-10-13T00:50:10;10.70;99.90
49218;DHT22;35045;51.194;7.268;2022-10-13T00:52:38;10.70;99.90
49218;DHT22;35045;51.194;7.268;2022-10-13T00:55:07;10.60;99.90
49218;DHT22;35045;51.194;7.268;2022-10-13T00:57:35;10.70;99.90
49218;DHT22;35045;51.194;7.268;2022-10-13T01:00:04;10.70;99.90
49218;DHT22;35045;51.194;7.268;2022-10-13T01:02:34;10.60;99.90
49218;DHT22;35045;51.194;7.268;2022-10-13T01:05:01;10.60;99.90
49218;DHT22;35045;51.194;7.268;2022-10-13T01:07:28;10.70;99.90
49218;DHT22;35045;51.194;7.268;2022-10-13T01:09:55;10.70;99.90
49218;DHT22;35045;51.194;7.268;2022-10-13T01:12:25;10.70;99.90
49218;DHT22;35045;51.194;7.268;2022-10-13T01:17:36;10.70;99.90
49218;DHT22;35045;51.194;7.268;2022-10-13T01:20:20;10.70;99.90
49218;DHT22;35045;51.194;7.268;2022-10-13T01:23:12;10.70;99.90
49218;DHT22;35045;51.194;7.268;2022-10-13T01:25:51;10.70;99.90
49218;DHT22;35045;51.194;7.268;2022-10-13T01:31:36;10.70;99.90
49218;DHT22;35045;51.194;7.268;2022-10-13T01:34:25;10.70;99.90
49218;DHT22;35045;51.194;7.268;2022-10-13T01:40:05;10.60;99.90
49218;DHT22;35045;51.194;7.268;2022-10-13T01:45:10;10.50;99.90
49218;DHT22;35045;51.194;7.268;2022-10-13T01:47:40;10.50;99.90
49218;DHT22;35045;51.194;7.268;2022-10-13T01:50:06;10.50;99.90
49218;DHT22;35045;51.194;7.268;2022-10-13T01:52:36;10.40;99.90
49218;DHT22;35045;51.194;7.268;2022-10-13T01:55:10;10.40;99.90
49218;DHT22;35045;51.194;7.268;2022-10-13T01:57:42;10.50;99.90
49218;DHT22;35045;51.194;7.268;2022-10-13T02:00:15;10.50;99.90
49218;DHT22;35045;51.194;7.268;2022-10-13T02:03:12;10.50;99.90
49218;DHT22;35045;51.194;7.268;2022-10-13T02:08:58;10.60;99.90
49218;DHT22;35045;51.194;7.268;2022-10-13T02:11:26;10.60;99.90
49218;DHT22;35045;51.194;7.268;2022-10-13T02:14:11;10.50;99.90
49218;DHT22;35045;51.194;7.268;2022-10-13T02:16:40;10.60;99.90
49218;DHT22;35045;51.194;7.268;2022-10-13T02:19:09;10.60;99.90
49218;DHT22;35045;51.194;7.268;2022-10-13T02:21:36;10.50;99.90
49218;DHT22;35045;51.194;7.268;2022-10-13T02:24:03;10.40;99.90
49218;DHT22;35045;51.194;7.268;2022-10-13T02:26:31;10.50;99.90
49218;DHT22;35045;51.194;7.268;2022-10-13T02:28:58;10.50;99.90
49218;DHT22;35045;51.194;7.268;2022-10-13T02:31:24;10.50;99.90
49218;DHT22;35045;51.194;7.268;2022-10-13T02:33:50;10.50;99.90
49218;DHT22;35045;51.194;7.268;2022-10-13T02:36:16;10.50;99.90
49218;DHT22;35045;51.194;7.268;2022-10-13T02:38:42;10.50;99.90
49218;DHT22;35045;51.194;7.268;2022-10-13T02:41:09;10.50;99.90
49218;DHT22;35045;51.194;7.268;2022-10-13T02:43:35;10.50;99.90
49218;DHT22;35045;51.194;7.268;2022-10-13T02:46:03;10.50;99.90
49218;DHT22;35045;51.194;7.268;2022-10-13T02:48:29;10.60;99.90
49218;DHT22;35045;51.194;7.268;2022-10-13T02:50:55;10.60;99.90
49218;DHT22;35045;51.194;7.268;2022-10-13T02:53:22;10.70;99.90
49218;DHT22;35045;51.194;7.268;2022-10-13T02:55:48;10.70;99.90
49218;DHT22;35045;51.194;7.268;2022-10-13T02:58:14;10.70;99.90
49218;DHT22;35045;51.194;7.268;2022-10-13T03:00:40;10.70;99.90
49218;DHT22;35045;51.194;7.268;2022-10-13T03:03:06;10.70;99.90
49218;DHT22;35045;51.194;7.268;2022-10-13T03:05:32;10.80;99.90
49218;DHT22;35045;51.194;7.268;2022-10-13T03:07:59;10.80;99.90
49218;DHT22;35045;51.194;7.268;2022-10-13T03:10:25;10.80;99.90
49218;DHT22;35045;51.194;7.268;2022-10-13T03:12:53;10.80;99.90
49218;DHT22;35045;51.194;7.268;2022-10-13T03:15:20;10.80;99.90
49218;DHT22;35045;51.194;7.268;2022-10-13T03:17:46;10.90;99.90
49218;DHT22;35045;51.194;7.268;2022-10-13T03:20:12;10.90;99.90
49218;DHT22;35045;51.194;7.268;2022-10-13T03:22:38;10.90;99.90
49218;DHT22;35045;51.194;7.268;2022-10-13T03:25:05;10.90;99.90
49218;DHT22;35045;51.194;7.268;2022-10-13T03:27:31;10.90;99.90
49218;DHT22;35045;51.194;7.268;2022-10-13T03:29:57;10.90;99.90
49218;DHT22;35045;51.194;7.268;2022-10-13T03:32:24;10.80;99.90
49218;DHT22;35045;51.194;7.268;2022-10-13T03:34:50;10.90;99.90
49218;DHT22;35045;51.194;7.268;2022-10-13T03:37:17;10.90;99.90
49218;DHT22;35045;51.194;7.268;2022-10-13T03:39:43;10.90;99.90
49218;DHT22;35045;51.194;7.268;2022-10-13T03:42:09;10.90;99.90
49218;DHT22;35045;51.194;7.268;2022-10-13T03:44:35;10.90;99.90
49218;DHT22;35045;51.194;7.268;2022-10-13T03:47:01;10.90;99.90
49218;DHT22;35045;51.194;7.268;2022-10-13T03:49:28;10.90;99.90
49218;DHT22;35045;51.194;7.268;2022-10-13T03:51:54;10.90;99.90
49218;DHT22;35045;51.194;7.268;2022-10-13T03:54:20;10.90;99.90
49218;DHT22;35045;51.194;7.268;2022-10-13T03:56:46;10.90;99.90
49218;DHT22;35045;51.194;7.268;2022-10-13T03:59:13;10.90;99.90
49218;DHT22;35045;51.194;7.268;2022-10-13T04:01:41;10.80;99.90
49218;DHT22;35045;51.194;7.268;2022-10-13T04:04:10;10.80;99.90
49218;DHT22;35045;51.194;7.268;2022-10-13T04:06:36;10.80;99.90
49218;DHT22;35045;51.194;7.268;2022-10-13T04:09:02;10.80;99.90
49218;DHT22;35045;51.194;7.268;2022-10-13T04:11:28;10.70;99.90
49218;DHT22;35045;51.194;7.268;2022-10-13T04:13:56;10.70;99.90
49218;DHT22;35045;51.194;7.268;2022-10-13T04:16:25;10.70;99.90
49218;DHT22;35045;51.194;7.268;2022-10-13T04:19:00;10.60;99.90
49218;DHT22;35045;51.194;7.268;2022-10-13T04:21:28;10.60;99.90
49218;DHT22;35045;51.194;7.268;2022-10-13T04:23:57;10.60;99.90
49218;DHT22;35045;51.194;7.268;2022-10-13T04:26:25;10.70;99.90
49218;DHT22;35045;51.194;7.268;2022-10-13T04:28:53;10.70;99.90
49218;DHT22;35045;51.194;7.268;2022-10-13T04:31:20;10.70;99.90
49218;DHT22;35045;51.194;7.268;2022-10-13T04:33:47;10.70;99.90
49218;DHT22;35045;51.194;7.268;2022-10-13T04:36:14;10.70;99.90
49218;DHT22;35045;51.194;7.268;2022-10-13T04:38:41;10.70;99.90
49218;DHT22;35045;51.194;7.268;2022-10-13T04:41:09;10.70;99.90
49218;DHT22;35045;51.194;7.268;2022-10-13T04:43:35;10.70;99.90
49218;DHT22;35045;51.194;7.268;2022-10-13T04:46:02;10.70;99.90
49218;DHT22;35045;51.194;7.268;2022-10-13T04:48:29;10.70;99.90
49218;DHT22;35045;51.194;7.268;2022-10-13T04:51:00;10.70;99.90
49218;DHT22;35045;51.194;7.268;2022-10-13T04:53:27;10.70;99.90
49218;DHT22;35045;51.194;7.268;2022-10-13T04:55:55;10.70;99.90
49218;DHT22;35045;51.194;7.268;2022-10-13T04:58:21;10.70;99.90
49218;DHT22;35045;51.194;7.268;2022-10-13T05:00:48;10.70;99.90
49218;DHT22;35045;51.194;7.268;2022-10-13T05:03:14;10.70;99.90
49218;DHT22;35045;51.194;7.268;2022-10-13T05:05:40;10.70;99.90
49218;DHT22;35045;51.194;7.268;2022-10-13T05:08:07;10.80;99.90
49218;DHT22;35045;51.194;7.268;2022-10-13T05:10:33;10.80;99.90
49218;DHT22;35045;51.194;7.268;2022-10-13T05:13:00;10.80;99.90
49218;DHT22;35045;51.194;7.268;2022-10-13T05:15:26;10.80;99.90
49218;DHT22;35045;51.194;7.268;2022-10-13T05:17:52;10.90;99.90
49218;DHT22;35045;51.194;7.268;2022-10-13T05:20:18;10.90;99.90
49218;DHT22;35045;51.194;7.268;2022-10-13T05:22:44;10.90;99.90
49218;DHT22;35045;51.194;7.268;2022-10-13T05:25:11;10.90;99.90
49218;DHT22;35045;51.194;7.268;2022-10-13T05:27:37;10.90;99.90
49218;DHT22;35045;51.194;7.268;2022-10-13T05:30:03;10.80;99.90
49218;DHT22;35045;51.194;7.268;2022-10-13T05:32:29;10.80;99.90
49218;DHT22;35045;51.194;7.268;2022-10-13T05:34:56;10.80;99.90
49218;DHT22;35045;51.194;7.268;2022-10-13T05:37:22;10.80;99.90
49218;DHT22;35045;51.194;7.268;2022-10-13T05:39:48;10.90;99.90
49218;DHT22;35045;51.194;7.268;2022-10-13T05:42:14;10.80;99.90
49218;DHT22;35045;51.194;7.268;2022-10-13T05:44:41;10.80;99.90
49218;DHT22;35045;51.194;7.268;2022-10-13T05:47:07;10.90;99.90
49218;DHT22;35045;51.194;7.268;2022-10-13T05:49:33;10.90;99.90
49218;DHT22;35045;51.194;7.268;2022-10-13T05:52:07;10.80;99.90
49218;DHT22;35045;51.194;7.268;2022-10-13T05:54:42;10.90;99.90
49218;DHT22;35045;51.194;7.268;2022-10-13T05:57:15;10.90;99.90
49218;DHT22;35045;51.194;7.268;2022-10-13T05:59:46;10.80;99.90
49218;DHT22;35045;51.194;7.268;2022-10-13T06:02:15;10.80;99.90
49218;DHT22;35045;51.194;7.268;2022-10-13T06:04:48;10.80;99.90
49218;DHT22;35045;51.194;7.268;2022-10-13T06:07:16;10.80;99.90
49218;DHT22;35045;51.194;7.268;2022-10-13T06:09:42;10.90;99.90
49218;DHT22;35045;51.194;7.268;2022-10-13T06:12:09;10.90;99.90
49218;DHT22;35045;51.194;7.268;2022-10-13T06:14:36;10.90;99.90
49218;DHT22;35045;51.194;7.268;2022-10-13T06:17:02;10.90;99.90
49218;DHT22;35045;51.194;7.268;2022-10-13T06:19:29;11.00;99.90
49218;DHT22;35045;51.194;7.268;2022-10-13T06:21:55;11.00;99.90
49218;DHT22;35045;51.194;7.268;2022-10-13T06:24:23;11.00;99.90
49218;DHT22;35045;51.194;7.268;2022-10-13T06:26:49;11.00;99.90
49218;DHT22;35045;51.194;7.268;2022-10-13T06:29:15;11.10;99.90
49218;DHT22;35045;51.194;7.268;2022-10-13T06:31:41;11.10;99.90
49218;DHT22;35045;51.194;7.268;2022-10-13T06:34:07;11.10;99.90
49218;DHT22;35045;51.194;7.268;2022-10-13T06:36:33;11.10;99.90
49218;DHT22;35045;51.194;7.268;2022-10-13T06:38:59;11.10;99.90
49218;DHT22;35045;51.194;7.268;2022-10-13T06:41:25;11.10;99.90
49218;DHT22;35045;51.194;7.268;2022-10-13T06:43:52;11.10;99.90
49218;DHT22;35045;51.194;7.268;2022-10-13T06:46:18;11.00;99.90
49218;DHT22;35045;51.194;7.268;2022-10-13T06:48:44;11.00;99.90
49218;DHT22;35045;51.194;7.268;2022-10-13T06:51:11;11.10;99.90
49218;DHT22;35045;51.194;7.268;2022-10-13T06:53:37;11.10;99.90
49218;DHT22;35045;51.194;7.268;2022-10-13T06:56:05;11.10;99.90
49218;DHT22;35045;51.194;7.268;2022-10-13T06:58:32;11.20;99.90
49218;DHT22;35045;51.194;7.268;2022-10-13T07:00:59;11.10;99.90
49218;DHT22;35045;51.194;7.268;2022-10-13T07:03:25;11.10;99.90
49218;DHT22;35045;51.194;7.268;2022-10-13T07:05:51;11.10;99.90
49218;DHT22;35045;51.194;7.268;2022-10-13T07:08:18;11.10;99.90
49218;DHT22;35045;51.194;7.268;2022-10-13T07:10:44;11.10;99.90
49218;DHT22;35045;51.194;7.268;2022-10-13T07:13:11;11.10;99.90
49218;DHT22;35045;51.194;7.268;2022-10-13T07:15:38;11.10;99.90
49218;DHT22;35045;51.194;7.268;2022-10-13T07:18:05;11.10;99.90
49218;DHT22;35045;51.194;7.268;2022-10-13T07:20:32;11.20;99.90
49218;DHT22;35045;51.194;7.268;2022-10-13T07:22:58;11.20;99.90
49218;DHT22;35045;51.194;7.268;2022-10-13T07:25:25;11.20;99.90
49218;DHT22;35045;51.194;7.268;2022-10-13T07:27:51;11.30;99.90
49218;DHT22;35045;51.194;7.268;2022-10-13T07:30:17;11.30;99.90
49218;DHT22;35045;51.194;7.268;2022-10-13T07:32:43;11.40;99.90
49218;DHT22;35045;51.194;7.268;2022-10-13T07:35:10;11.40;99.90
49218;DHT22;35045;51.194;7.268;2022-10-13T07:37:37;11.50;99.90
49218;DHT22;35045;51.194;7.268;2022-10-13T07:40:04;11.60;99.90
49218;DHT22;35045;51.194;7.268;2022-10-13T07:42:31;11.70;99.90
49218;DHT22;35045;51.194;7.268;2022-10-13T07:44:57;11.80;99.90
49218;DHT22;35045;51.194;7.268;2022-10-13T07:47:23;11.80;99.90
49218;DHT22;35045;51.194;7.268;2022-10-13T07:49:49;11.90;99.90
49218;DHT22;35045;51.194;7.268;2022-10-13T07:52:15;11.90;99.90
49218;DHT22;35045;51.194;7.268;2022-10-13T07:54:42;12.00;99.90
49218;DHT22;35045;51.194;7.268;2022-10-13T07:57:08;12.00;99.90
49218;DHT22;35045;51.194;7.268;2022-10-13T07:59:34;12.00;99.90
49218;DHT22;35045;51.194;7.268;2022-10-13T08:02:00;12.00;99.90
49218;DHT22;35045;51.194;7.268;2022-10-13T08:04:31;12.00;99.90
49218;DHT22;35045;51.194;7.268;2022-10-13T08:06:57;12.00;99.90
49218;DHT22;35045;51.194;7.268;2022-10-13T08:09:24;12.00;99.90
49218;DHT22;35045;51.194;7.268;2022-10-13T08:11:51;12.00;99.90
49218;DHT22;35045;51.194;7.268;2022-10-13T08:14:19;12.00;99.90
49218;DHT22;35045;51.194;7.268;2022-10-13T08:16:46;12.00;99.90
49218;DHT22;35045;51.194;7.268;2022-10-13T08:19:14;12.10;99.90
49218;DHT22;35045;51.194;7.268;2022-10-13T08:21:41;12.10;99.90
49218;DHT22;35045;51.194;7.268;2022-10-13T08:24:24;12.10;99.90
49218;DHT22;35045;51.194;7.268;2022-10-13T08:26:50;12.10;99.90
49218;DHT22;35045;51.194;7.268;2022-10-13T08:29:16;12.10;99.90
49218;DHT22;35045;51.194;7.268;2022-10-13T08:31:46;12.20;99.90
49218;DHT22;35045;51.194;7.268;2022-10-13T08:34:17;12.30;99.90
49218;DHT22;35045;51.194;7.268;2022-10-13T08:36:43;12.40;99.90
49218;DHT22;35045;51.194;7.268;2022-10-13T08:39:11;12.50;99.90
49218;DHT22;35045;51.194;7.268;2022-10-13T08:41:41;12.50;99.90
49218;DHT22;35045;51.194;7.268;2022-10-13T08:49:55;13.00;99.90
49218;DHT22;35045;51.194;7.268;2022-10-13T08:52:27;13.00;99.90
49218;DHT22;35045;51.194;7.268;2022-10-13T08:54:54;13.10;99.90
49218;DHT22;35045;51.194;7.268;2022-10-13T08:57:21;13.00;99.90
49218;DHT22;35045;51.194;7.268;2022-10-13T08:59:48;13.10;99.90
49218;DHT22;35045;51.194;7.268;2022-10-13T09:02:23;13.10;99.90
49218;DHT22;35045;51.194;7.268;2022-10-13T09:04:51;13.10;99.90
49218;DHT22;35045;51.194;7.268;2022-10-13T09:07:26;13.10;99.90
49218;DHT22;35045;51.194;7.268;2022-10-13T09:09:53;13.20;99.90
49218;DHT22;35045;51.194;7.268;2022-10-13T09:12:20;13.20;99.90
49218;DHT22;35045;51.194;7.268;2022-10-13T09:15:16;13.30;99.90
49218;DHT22;35045;51.194;7.268;2022-10-13T09:17:42;13.30;99.90
49218;DHT22;35045;51.194;7.268;2022-10-13T09:20:22;13.40;99.90
49218;DHT22;35045;51.194;7.268;2022-10-13T09:23:04;13.40;99.90
49218;DHT22;35045;51.194;7.268;2022-10-13T09:25:45;13.50;99.90
49218;DHT22;35045;51.194;7.268;2022-10-13T09:28:23;13.50;99.90
49218;DHT22;35045;51.194;7.268;2022-10-13T09:33:33;13.60;99.90
49218;DHT22;35045;51.194;7.268;2022-10-13T09:38:27;13.60;99.90
49218;DHT22;35045;51.194;7.268;2022-10-13T09:41:11;13.50;99.90
49218;DHT22;35045;51.194;7.268;2022-10-13T09:46:33;13.60;99.90
49218;DHT22;35045;51.194;7.268;2022-10-13T09:49:28;13.80;99.90
49218;DHT22;35045;51.194;7.268;2022-10-13T09:52:21;13.90;99.90
49218;DHT22;35045;51.194;7.268;2022-10-13T09:54:52;14.10;99.90
49218;DHT22;35045;51.194;7.268;2022-10-13T09:57:44;14.40;99.90
49218;DHT22;35045;51.194;7.268;2022-10-13T10:03:12;14.70;99.90
49218;DHT22;35045;51.194;7.268;2022-10-13T10:06:06;14.80;99.90
49218;DHT22;35045;51.194;7.268;2022-10-13T10:11:09;14.90;99.90
49218;DHT22;35045;51.194;7.268;2022-10-13T10:13:37;15.00;99.90
49218;DHT22;35045;51.194;7.268;2022-10-13T10:16:09;15.00;99.90
49218;DHT22;35045;51.194;7.268;2022-10-13T10:18:52;15.10;99.90
49218;DHT22;35045;51.194;7.268;2022-10-13T10:21:43;15.00;99.90
49218;DHT22;35045;51.194;7.268;2022-10-13T10:27:05;15.10;99.90
49218;DHT22;35045;51.194;7.268;2022-10-13T10:29:39;15.20;99.90
49218;DHT22;35045;51.194;7.268;2022-10-13T10:36:01;15.20;99.90
49218;DHT22;35045;51.194;7.268;2022-10-13T10:41:15;15.40;99.90
49218;DHT22;35045;51.194;7.268;2022-10-13T10:44:01;15.70;99.90
49218;DHT22;35045;51.194;7.268;2022-10-13T10:46:36;15.90;99.90
49218;DHT22;35045;51.194;7.268;2022-10-13T10:49:48;15.90;99.90
49218;DHT22;35045;51.194;7.268;2022-10-13T10:51:54;16.00;99.90
49218;DHT22;35045;51.194;7.268;2022-10-13T10:57:12;15.90;99.90
49218;DHT22;35045;51.194;7.268;2022-10-13T11:04:52;15.70;99.90
49218;DHT22;35045;51.194;7.268;2022-10-13T11:15:07;15.70;99.90
49218;DHT22;35045;51.194;7.268;2022-10-13T11:17:35;15.70;99.90
49218;DHT22;35045;51.194;7.268;2022-10-13T11:25:40;15.80;99.90
49218;DHT22;35045;51.194;7.268;2022-10-13T11:30:50;16.00;99.90
49218;DHT22;35045;51.194;7.268;2022-10-13T11:50:45;16.40;99.90
49218;DHT22;35045;51.194;7.268;2022-10-13T11:53:20;16.30;99.90
49218;DHT22;35045;51.194;7.268;2022-10-13T11:55:54;16.30;99.90
49218;DHT22;35045;51.194;7.268;2022-10-13T11:58:24;16.20;99.90
49218;DHT22;35045;51.194;7.268;2022-10-13T12:01:05;16.10;99.90
49218;DHT22;35045;51.194;7.268;2022-10-13T12:03:49;16.10;99.90
49218;DHT22;35045;51.194;7.268;2022-10-13T12:08:46;15.90;99.90
49218;DHT22;35045;51.194;7.268;2022-10-13T12:11:30;15.80;99.90
49218;DHT22;35045;51.194;7.268;2022-10-13T12:13:57;15.70;99.90
49218;DHT22;35045;51.194;7.268;2022-10-13T12:16:26;15.70;99.90
49218;DHT22;35045;51.194;7.268;2022-10-13T12:18:52;15.60;99.90
49218;DHT22;35045;51.194;7.268;2022-10-13T12:21:22;15.60;99.90
49218;DHT22;35045;51.194;7.268;2022-10-13T12:23:49;15.50;99.90
49218;DHT22;35045;51.194;7.268;2022-10-13T12:26:22;15.50;99.90
49218;DHT22;35045;51.194;7.268;2022-10-13T12:28:55;15.40;99.90
49218;DHT22;35045;51.194;7.268;2022-10-13T12:31:25;15.30;99.90
49218;DHT22;35045;51.194;7.268;2022-10-13T12:33:56;15.20;99.90
49218;DHT22;35045;51.194;7.268;2022-10-13T12:36:30;15.10;99.90
49218;DHT22;35045;51.194;7.268;2022-10-13T12:39:04;15.10;99.90
49218;DHT22;35045;51.194;7.268;2022-10-13T12:41:37;15.00;99.90
49218;DHT22;35045;51.194;7.268;2022-10-13T12:44:06;14.90;99.90
49218;DHT22;35045;51.194;7.268;2022-10-13T12:46:36;14.90;99.90
49218;DHT22;35045;51.194;7.268;2022-10-13T12:49:04;14.80;99.90
49218;DHT22;35045;51.194;7.268;2022-10-13T12:51:30;14.80;99.90
49218;DHT22;35045;51.194;7.268;2022-10-13T12:53:57;14.80;99.90
49218;DHT22;35045;51.194;7.268;2022-10-13T12:56:30;14.80;99.90
49218;DHT22;35045;51.194;7.268;2022-10-13T12:58:57;14.80;99.90
49218;DHT22;35045;51.194;7.268;2022-10-13T13:01:32;14.80;99.90
49218;DHT22;35045;51.194;7.268;2022-10-13T13:04:01;14.70;99.90
49218;DHT22;35045;51.194;7.268;2022-10-13T13:06:54;14.70;99.90
49218;DHT22;35045;51.194;7.268;2022-10-13T13:09:31;14.70;99.90
49218;DHT22;35045;51.194;7.268;2022-10-13T13:14:45;14.90;99.90
49218;DHT22;35045;51.194;7.268;2022-10-13T13:19:53;14.80;99.90
49218;DHT22;35045;51.194;7.268;2022-10-13T13:22:21;14.70;99.90
49218;DHT22;35045;51.194;7.268;2022-10-13T13:24:49;14.80;99.90
49218;DHT22;35045;51.194;7.268;2022-10-13T13:29:43;14.90;99.90
49218;DHT22;35045;51.194;7.268;2022-10-13T13:32:17;15.00;99.90
49218;DHT22;35045;51.194;7.268;2022-10-13T13:34:45;15.10;99.90
49218;DHT22;35045;51.194;7.268;2022-10-13T13:37:28;15.10;99.90
49218;DHT22;35045;51.194;7.268;2022-10-13T13:39:55;15.10;99.90
49218;DHT22;35045;51.194;7.268;2022-10-13T13:42:22;15.00;99.90
49218;DHT22;35045;51.194;7.268;2022-10-13T13:44:48;15.10;99.90
49218;DHT22;35045;51.194;7.268;2022-10-13T13:47:25;15.10;99.90
49218;DHT22;35045;51.194;7.268;2022-10-13T13:49:53;15.00;99.90
49218;DHT22;35045;51.194;7.268;2022-10-13T13:52:20;15.10;99.90
49218;DHT22;35045;51.194;7.268;2022-10-13T13:54:47;15.00;99.90
49218;DHT22;35045;51.194;7.268;2022-10-13T13:57:14;15.00;99.90
49218;DHT22;35045;51.194;7.268;2022-10-13T13:59:40;15.00;99.90
49218;DHT22;35045;51.194;7.268;2022-10-13T14:02:14;14.90;99.90
49218;DHT22;35045;51.194;7.268;2022-10-13T14:04:40;14.90;99.90
49218;DHT22;35045;51.194;7.268;2022-10-13T14:07:06;14.90;99.90
49218;DHT22;35045;51.194;7.268;2022-10-13T14:09:33;14.90;99.90
49218;DHT22;35045;51.194;7.268;2022-10-13T14:11:59;15.00;99.90
49218;DHT22;35045;51.194;7.268;2022-10-13T14:14:25;15.00;99.90
49218;DHT22;35045;51.194;7.268;2022-10-13T14:16:52;14.90;99.90
49218;DHT22;35045;51.194;7.268;2022-10-13T14:19:18;14.90;99.90
49218;DHT22;35045;51.194;7.268;2022-10-13T14:21:44;14.80;99.90
49218;DHT22;35045;51.194;7.268;2022-10-13T14:24:11;14.80;99.90
49218;DHT22;35045;51.194;7.268;2022-10-13T14:26:37;14.80;99.90
49218;DHT22;35045;51.194;7.268;2022-10-13T14:29:03;14.80;99.90
49218;DHT22;35045;51.194;7.268;2022-10-13T14:31:29;14.80;99.90
49218;DHT22;35045;51.194;7.268;2022-10-13T14:33:55;14.80;99.90
49218;DHT22;35045;51.194;7.268;2022-10-13T14:36:22;14.80;99.90
49218;DHT22;35045;51.194;7.268;2022-10-13T14:38:48;14.80;99.90
49218;DHT22;35045;51.194;7.268;2022-10-13T14:41:16;14.70;99.90
49218;DHT22;35045;51.194;7.268;2022-10-13T14:43:43;14.70;99.90
49218;DHT22;35045;51.194;7.268;2022-10-13T14:46:09;14.60;99.90
49218;DHT22;35045;51.194;7.268;2022-10-13T14:48:36;14.60;99.90
49218;DHT22;35045;51.194;7.268;2022-10-13T14:51:07;14.60;99.90
49218;DHT22;35045;51.194;7.268;2022-10-13T14:53:34;14.60;99.90
49218;DHT22;35045;51.194;7.268;2022-10-13T14:56:02;14.60;99.90
49218;DHT22;35045;51.194;7.268;2022-10-13T14:58:28;14.60;99.90
49218;DHT22;35045;51.194;7.268;2022-10-13T15:00:54;14.70;99.90
49218;DHT22;35045;51.194;7.268;2022-10-13T15:03:21;14.60;99.90
49218;DHT22;35045;51.194;7.268;2022-10-13T15:05:48;14.60;99.90
49218;DHT22;35045;51.194;7.268;2022-10-13T15:08:15;14.50;99.90
49218;DHT22;35045;51.194;7.268;2022-10-13T15:10:41;14.60;99.90
49218;DHT22;35045;51.194;7.268;2022-10-13T15:13:07;14.60;99.90
49218;DHT22;35045;51.194;7.268;2022-10-13T15:15:33;14.50;99.90
49218;DHT22;35045;51.194;7.268;2022-10-13T15:18:00;14.50;99.90
49218;DHT22;35045;51.194;7.268;2022-10-13T15:20:26;14.50;99.90
49218;DHT22;35045;51.194;7.268;2022-10-13T15:22:52;14.50;99.90
49218;DHT22;35045;51.194;7.268;2022-10-13T15:25:19;14.40;99.90
49218;DHT22;35045;51.194;7.268;2022-10-13T15:27:45;14.40;99.90
49218;DHT22;35045;51.194;7.268;2022-10-13T15:30:11;14.30;99.90
49218;DHT22;35045;51.194;7.268;2022-10-13T15:32:38;14.30;99.90
49218;DHT22;35045;51.194;7.268;2022-10-13T15:35:04;14.30;99.90
49218;DHT22;35045;51.194;7.268;2022-10-13T15:37:31;14.30;99.90
49218;DHT22;35045;51.194;7.268;2022-10-13T15:39:57;14.30;99.90
49218;DHT22;35045;51.194;7.268;2022-10-13T15:42:23;14.30;99.90
49218;DHT22;35045;51.194;7.268;2022-10-13T15:44:49;14.40;99.90
49218;DHT22;35045;51.194;7.268;2022-10-13T15:47:29;14.40;99.90
49218;DHT22;35045;51.194;7.268;2022-10-13T15:49:56;14.40;99.90
49218;DHT22;35045;51.194;7.268;2022-10-13T15:52:22;14.40;99.90
49218;DHT22;35045;51.194;7.268;2022-10-13T15:54:48;14.40;99.90
49218;DHT22;35045;51.194;7.268;2022-10-13T15:57:16;14.40;99.90
49218;DHT22;35045;51.194;7.268;2022-10-13T15:59:44;14.30;99.90
49218;DHT22;35045;51.194;7.268;2022-10-13T16:02:10;14.30;99.90
49218;DHT22;35045;51.194;7.268;2022-10-13T16:04:36;14.30;99.90
49218;DHT22;35045;51.194;7.268;2022-10-13T16:07:02;14.20;99.90
49218;DHT22;35045;51.194;7.268;2022-10-13T16:09:29;14.20;99.90
49218;DHT22;35045;51.194;7.268;2022-10-13T16:11:56;14.00;99.90
49218;DHT22;35045;51.194;7.268;2022-10-13T16:14:22;14.00;99.90
49218;DHT22;35045;51.194;7.268;2022-10-13T16:16:48;14.00;99.90
49218;DHT22;35045;51.194;7.268;2022-10-13T16:19:14;14.00;99.90
49218;DHT22;35045;51.194;7.268;2022-10-13T16:21:40;14.00;99.90
49218;DHT22;35045;51.194;7.268;2022-10-13T16:24:07;14.00;99.90
49218;DHT22;35045;51.194;7.268;2022-10-13T16:26:33;13.90;99.90
49218;DHT22;35045;51.194;7.268;2022-10-13T16:28:59;13.90;99.90
49218;DHT22;35045;51.194;7.268;2022-10-13T16:31:25;13.90;99.90
49218;DHT22;35045;51.194;7.268;2022-10-13T16:33:52;13.90;99.90
49218;DHT22;35045;51.194;7.268;2022-10-13T16:36:19;13.80;99.90
49218;DHT22;35045;51.194;7.268;2022-10-13T16:38:45;13.80;99.90
49218;DHT22;35045;51.194;7.268;2022-10-13T16:41:15;13.80;99.90
49218;DHT22;35045;51.194;7.268;2022-10-13T16:43:43;13.70;99.90
49218;DHT22;35045;51.194;7.268;2022-10-13T16:46:11;13.70;99.90
49218;DHT22;35045;51.194;7.268;2022-10-13T16:48:39;13.70;99.90
49218;DHT22;35045;51.194;7.268;2022-10-13T16:51:08;13.70;99.90
49218;DHT22;35045;51.194;7.268;2022-10-13T16:53:35;13.70;99.90
49218;DHT22;35045;51.194;7.268;2022-10-13T16:56:05;13.70;99.90
49218;DHT22;35045;51.194;7.268;2022-10-13T16:58:32;13.70;99.90
49218;DHT22;35045;51.194;7.268;2022-10-13T17:01:06;13.60;99.90
49218;DHT22;35045;51.194;7.268;2022-10-13T17:03:37;13.60;99.90
49218;DHT22;35045;51.194;7.268;2022-10-13T17:06:04;13.60;99.90
49218;DHT22;35045;51.194;7.268;2022-10-13T17:08:31;13.60;99.90
49218;DHT22;35045;51.194;7.268;2022-10-13T17:11:01;13.60;99.90
49218;DHT22;35045;51.194;7.268;2022-10-13T17:13:28;13.60;99.90
49218;DHT22;35045;51.194;7.268;2022-10-13T17:15:55;13.60;99.90